createdAt,value
2016-05-01T00:00:36.247Z,23.48
2016-05-01T00:01:36.297Z,23.47
2016-05-01T00:02:36.095Z,23.38
2016-05-01T00:03:36.098Z,23.56
2016-05-01T00:04:35.897Z,23.55
2016-05-01T00:05:36.308Z,23.47
2016-05-01T00:06:36.467Z,23.48
2016-05-01T00:07:36.452Z,23.44
2016-05-01T00:08:36.097Z,23.53
2016-05-01T00:09:36.255Z,23.53
2016-05-01T00:10:36.258Z,23.38
2016-05-01T00:11:36.464Z,23.5
2016-05-01T00:12:36.263Z,23.52
2016-05-01T00:13:36.469Z,23.47
2016-05-01T00:14:36.066Z,23.48
2016-05-01T00:15:36.459Z,23.34
2016-05-01T00:16:36.133Z,23.41
2016-05-01T00:17:36.465Z,23.42
2016-05-01T00:18:36.467Z,23.42
2016-05-01T00:19:36.110Z,23.41
2016-05-01T00:20:36.019Z,23.42
2016-05-01T00:21:36.053Z,23.4
2016-05-01T00:22:36.071Z,23.47
2016-05-01T00:23:36.073Z,23.4
2016-05-01T00:24:36.483Z,23.38
2016-05-01T00:25:36.267Z,23.42
2016-05-01T00:26:36.285Z,23.42
2016-05-01T00:27:35.709Z,23.41
2016-05-01T00:28:35.962Z,23.34
2016-05-01T00:29:36.059Z,23.34
2016-05-01T00:30:36.281Z,23.37
2016-05-01T00:31:36.487Z,23.37
2016-05-01T00:32:36.067Z,23.24
2016-05-01T00:33:36.273Z,23.32
2016-05-01T00:34:36.276Z,23.22
2016-05-01T00:35:36.122Z,23.26
2016-05-01T00:36:36.125Z,23.24
2016-05-01T00:37:36.283Z,23.25
2016-05-01T00:38:36.286Z,23.15
2016-05-01T00:39:36.086Z,23.22
2016-05-01T00:40:36.073Z,23.18
2016-05-01T00:41:36.091Z,23.16
2016-05-01T00:42:36.282Z,23.18
2016-05-01T00:43:36.285Z,23.1
2016-05-01T00:44:36.490Z,23.04
2016-05-01T00:45:36.493Z,23.06
2016-05-01T00:46:35.917Z,23.04
2016-05-01T00:47:36.155Z,23.1
2016-05-01T00:48:36.126Z,23.03
2016-05-01T00:49:36.284Z,23.1
2016-05-01T00:50:36.193Z,23.06
2016-05-01T00:51:36.134Z,22.91
2016-05-01T00:52:35.996Z,22.86
2016-05-01T00:53:36.499Z,22.91
2016-05-01T00:54:36.298Z,22.99
2016-05-01T00:55:36.301Z,22.86
2016-05-01T00:56:36.288Z,22.89
2016-05-01T00:57:36.088Z,22.78
2016-05-01T00:58:36.293Z,22.84
2016-05-01T00:59:36.140Z,22.82
2016-05-01T01:00:35.892Z,22.85
2016-05-01T01:01:36.504Z,22.84
2016-05-01T01:02:36.101Z,22.79
2016-05-01T01:03:36.291Z,22.76
2016-05-01T01:04:36.091Z,22.66
2016-05-01T01:05:36.514Z,22.63
2016-05-01T01:06:36.096Z,22.63
2016-05-01T01:07:36.349Z,22.6
2016-05-01T01:08:36.086Z,22.63
2016-05-01T01:09:36.494Z,22.52
2016-05-01T01:10:35.982Z,22.6
2016-05-01T01:11:36.297Z,22.55
2016-05-01T01:12:36.299Z,22.54
2016-05-01T01:13:36.303Z,22.55
2016-05-01T01:14:36.301Z,22.52
2016-05-01T01:15:36.492Z,22.48
2016-05-01T01:16:36.291Z,22.48
2016-05-01T01:17:36.090Z,22.39
2016-05-01T01:18:36.093Z,22.36
2016-05-01T01:19:36.503Z,22.29
2016-05-01T01:20:36.427Z,22.3
2016-05-01T01:21:36.492Z,22.24
2016-05-01T01:22:36.292Z,22.24
2016-05-01T01:23:36.294Z,22.27
2016-05-01T01:24:36.078Z,22.24
2016-05-01T01:25:36.299Z,22.2
2016-05-01T01:26:36.286Z,22.09
2016-05-01T01:27:36.305Z,22.14
2016-05-01T01:28:36.494Z,22.09
2016-05-01T01:29:35.733Z,22.11
2016-05-01T01:30:36.079Z,22
2016-05-01T01:31:36.096Z,22.04
2016-05-01T01:32:36.287Z,22.04
2016-05-01T01:33:36.337Z,21.89
2016-05-01T01:34:36.496Z,21.9
2016-05-01T01:35:36.343Z,21.96
2016-05-01T01:36:36.486Z,21.99
2016-05-01T01:37:36.331Z,21.89
2016-05-01T01:38:36.304Z,21.82
2016-05-01T01:39:36.087Z,21.8
2016-05-01T01:40:36.496Z,21.82
2016-05-01T01:41:36.499Z,21.8
2016-05-01T01:42:36.079Z,21.7
2016-05-01T01:43:36.270Z,21.78
2016-05-01T01:44:36.084Z,21.77
2016-05-01T01:45:36.275Z,21.73
2016-05-01T01:46:36.481Z,21.76
2016-05-01T01:47:36.281Z,21.73
2016-05-01T01:48:36.080Z,21.66
2016-05-01T01:49:36.067Z,21.71
2016-05-01T01:50:35.914Z,21.64
2016-05-01T01:51:36.260Z,21.56
2016-05-01T01:52:36.091Z,21.52
2016-05-01T01:53:36.280Z,21.49
2016-05-01T01:54:36.269Z,21.45
2016-05-01T01:55:36.272Z,21.45
2016-05-01T01:56:36.070Z,21.31
2016-05-01T01:57:36.260Z,21.36
2016-05-01T01:58:35.763Z,21.34
2016-05-01T01:59:36.078Z,21.33
2016-05-01T02:00:35.910Z,21.3
2016-05-01T02:01:36.271Z,21.25
2016-05-01T02:02:36.461Z,21.27
2016-05-01T02:03:36.261Z,21.16
2016-05-01T02:04:35.888Z,21.19
2016-05-01T02:05:36.110Z,21.09
2016-05-01T02:06:36.268Z,21.13
2016-05-01T02:07:36.256Z,21.09
2016-05-01T02:08:36.462Z,21.06
2016-05-01T02:09:36.043Z,21.01
2016-05-01T02:10:36.264Z,20.91
2016-05-01T02:11:36.252Z,20.9
2016-05-01T02:12:36.456Z,20.94
2016-05-01T02:13:36.100Z,20.88
2016-05-01T02:14:36.448Z,20.83
2016-05-01T02:15:36.246Z,20.81
2016-05-01T02:16:36.078Z,20.74
2016-05-01T02:17:36.034Z,20.74
2016-05-01T02:18:35.879Z,20.75
2016-05-01T02:19:36.289Z,20.68
2016-05-01T02:20:36.292Z,20.66
2016-05-01T02:21:36.231Z,20.63
2016-05-01T02:22:35.875Z,20.64
2016-05-01T02:23:36.034Z,20.61
2016-05-01T02:24:35.864Z,20.56
2016-05-01T02:25:36.242Z,20.48
2016-05-01T02:26:36.088Z,20.57
2016-05-01T02:27:36.013Z,20.48
2016-05-01T02:28:36.422Z,20.4
2016-05-01T02:29:36.237Z,20.41
2016-05-01T02:30:36.271Z,20.41
2016-05-01T02:31:35.852Z,20.42
2016-05-01T02:32:36.214Z,20.35
2016-05-01T02:33:36.232Z,20.3
2016-05-01T02:34:36.407Z,20.35
2016-05-01T02:35:36.300Z,20.35
2016-05-01T02:36:36.412Z,20.25
2016-05-01T02:37:36.055Z,20.2
2016-05-01T02:38:35.699Z,20.22
2016-05-01T02:39:36.202Z,20.26
2016-05-01T02:40:36.407Z,20.27
2016-05-01T02:41:36.004Z,20.15
2016-05-01T02:42:36.210Z,20.11
2016-05-01T02:43:36.196Z,20.08
2016-05-01T02:44:36.184Z,20.11
2016-05-01T02:45:36.201Z,20.11
2016-05-01T02:46:36.204Z,20.02
2016-05-01T02:47:36.036Z,19.98
2016-05-01T02:48:35.991Z,19.95
2016-05-01T02:49:36.384Z,19.97
2016-05-01T02:50:36.450Z,19.97
2016-05-01T02:51:36.172Z,19.9
2016-05-01T02:52:35.987Z,19.95
2016-05-01T02:53:36.380Z,19.95
2016-05-01T02:54:35.758Z,19.83
2016-05-01T02:55:36.182Z,19.92
2016-05-01T02:56:35.811Z,19.8
2016-05-01T02:57:35.766Z,19.75
2016-05-01T02:58:35.972Z,19.83
2016-05-01T02:59:36.380Z,19.79
2016-05-01T03:00:36.164Z,19.82
2016-05-01T03:01:35.949Z,19.78
2016-05-01T03:02:36.357Z,19.82
2016-05-01T03:03:36.157Z,19.68
2016-05-01T03:04:36.346Z,19.65
2016-05-01T03:05:36.240Z,19.67
2016-05-01T03:06:35.993Z,19.56
2016-05-01T03:07:35.932Z,19.61
2016-05-01T03:08:35.732Z,19.56
2016-05-01T03:09:35.938Z,19.55
2016-05-01T03:10:36.332Z,19.61
2016-05-01T03:11:36.335Z,19.47
2016-05-01T03:12:36.135Z,19.56
2016-05-01T03:13:35.917Z,19.56
2016-05-01T03:14:35.921Z,19.46
2016-05-01T03:15:36.173Z,19.4
2016-05-01T03:16:35.707Z,19.43
2016-05-01T03:17:36.117Z,19.47
2016-05-01T03:18:36.103Z,19.42
2016-05-01T03:19:36.106Z,19.37
2016-05-01T03:20:35.968Z,19.35
2016-05-01T03:21:36.298Z,19.23
2016-05-01T03:22:36.114Z,19.2
2016-05-01T03:23:36.101Z,19.28
2016-05-01T03:24:35.963Z,19.3
2016-05-01T03:25:36.091Z,19.19
2016-05-01T03:26:35.875Z,19.23
2016-05-01T03:27:36.300Z,19.19
2016-05-01T03:28:35.786Z,19.19
2016-05-01T03:29:36.086Z,19.13
2016-05-01T03:30:35.964Z,19.1
2016-05-01T03:31:35.920Z,19.06
2016-05-01T03:32:36.078Z,19.1
2016-05-01T03:33:35.878Z,19.09
2016-05-01T03:34:36.272Z,19
2016-05-01T03:35:36.868Z,18.96
2016-05-01T03:36:36.293Z,18.93
2016-05-01T03:37:36.264Z,18.89
2016-05-01T03:38:35.860Z,18.93
2016-05-01T03:39:36.051Z,18.93
2016-05-01T03:40:35.647Z,18.93
2016-05-01T03:41:36.259Z,18.91
2016-05-01T03:42:36.043Z,18.81
2016-05-01T03:43:36.233Z,18.84
2016-05-01T03:44:36.235Z,18.75
2016-05-01T03:45:36.035Z,18.78
2016-05-01T03:46:36.038Z,18.86
2016-05-01T03:47:36.025Z,18.84
2016-05-01T03:48:35.825Z,18.79
2016-05-01T03:49:35.827Z,18.79
2016-05-01T03:50:35.830Z,18.72
2016-05-01T03:51:36.004Z,18.69
2016-05-01T03:52:36.023Z,18.76
2016-05-01T03:53:36.010Z,18.74
2016-05-01T03:54:36.217Z,18.65
2016-05-01T03:55:36.015Z,18.61
2016-05-01T03:56:36.003Z,18.63
2016-05-01T03:57:36.209Z,18.63
2016-05-01T03:58:36.195Z,18.57
2016-05-01T03:59:35.636Z,18.59
2016-05-01T04:00:35.575Z,18.54
2016-05-01T04:01:35.781Z,18.56
2016-05-01T04:02:35.831Z,18.5
2016-05-01T04:03:35.568Z,18.49
2016-05-01T04:04:35.977Z,18.45
2016-05-01T04:05:35.807Z,18.44
2016-05-01T04:06:36.169Z,18.38
2016-05-01T04:07:35.766Z,18.42
2016-05-01T04:08:35.769Z,18.41
2016-05-01T04:09:35.756Z,18.44
2016-05-01T04:10:35.962Z,18.32
2016-05-01T04:11:35.558Z,18.35
2016-05-01T04:12:35.733Z,18.31
2016-05-01T04:13:35.580Z,18.35
2016-05-01T04:14:36.004Z,18.31
2016-05-01T04:15:36.132Z,18.24
2016-05-01T04:16:35.978Z,18.26
2016-05-01T04:17:35.918Z,18.24
2016-05-01T04:18:35.562Z,18.23
2016-05-01T04:19:35.986Z,18.26
2016-05-01T04:20:36.114Z,18.17
2016-05-01T04:21:35.539Z,18.11
2016-05-01T04:22:35.916Z,18.14
2016-05-01T04:23:35.544Z,18.2
2016-05-01T04:24:35.702Z,18.08
2016-05-01T04:25:35.705Z,18.13
2016-05-01T04:26:35.708Z,18.13
2016-05-01T04:27:35.883Z,18.1
2016-05-01T04:28:35.745Z,18.11
2016-05-01T04:29:35.514Z,18.11
2016-05-01T04:30:35.875Z,18.1
2016-05-01T04:31:35.878Z,18.02
2016-05-01T04:32:35.881Z,18.03
2016-05-01T04:33:35.664Z,18.05
2016-05-01T04:34:35.652Z,18.02
2016-05-01T04:35:36.123Z,17.95
2016-05-01T04:36:35.860Z,17.96
2016-05-01T04:37:35.644Z,17.92
2016-05-01T04:38:35.849Z,17.96
2016-05-01T04:39:35.649Z,17.92
2016-05-01T04:40:35.636Z,17.96
2016-05-01T04:41:35.826Z,17.9
2016-05-01T04:42:35.829Z,17.84
2016-05-01T04:43:35.832Z,17.81
2016-05-01T04:44:35.818Z,17.81
2016-05-01T04:45:35.399Z,17.74
2016-05-01T04:46:35.668Z,17.71
2016-05-01T04:47:35.296Z,17.69
2016-05-01T04:48:36.002Z,17.71
2016-05-01T04:49:35.802Z,17.68
2016-05-01T04:50:36.303Z,17.66
2016-05-01T04:51:35.995Z,17.74
2016-05-01T04:52:35.606Z,17.58
2016-05-01T04:53:35.421Z,17.55
2016-05-01T04:54:35.784Z,17.54
2016-05-01T04:55:35.567Z,17.55
2016-05-01T04:56:35.633Z,17.54
2016-05-01T04:57:35.775Z,17.52
2016-05-01T04:58:35.763Z,17.6
2016-05-01T04:59:35.766Z,17.57
2016-05-01T05:00:35.814Z,17.49
2016-05-01T05:01:35.958Z,17.47
2016-05-01T05:02:35.555Z,17.49
2016-05-01T05:03:35.761Z,17.45
2016-05-01T05:04:35.373Z,17.5
2016-05-01T05:05:35.594Z,17.42
2016-05-01T05:06:35.378Z,17.42
2016-05-01T05:07:35.788Z,17.45
2016-05-01T05:08:35.322Z,17.45
2016-05-01T05:09:35.511Z,17.38
2016-05-01T05:10:35.514Z,17.3
2016-05-01T05:11:35.923Z,17.35
2016-05-01T05:12:35.707Z,17.27
2016-05-01T05:13:35.913Z,17.32
2016-05-01T05:14:35.493Z,17.28
2016-05-01T05:15:35.699Z,17.22
2016-05-01T05:16:35.687Z,17.24
2016-05-01T05:17:35.735Z,17.25
2016-05-01T05:18:35.488Z,17.22
2016-05-01T05:19:35.694Z,17.27
2016-05-01T05:20:35.806Z,17.22
2016-05-01T05:21:35.668Z,17.12
2016-05-01T05:22:35.656Z,17.15
2016-05-01T05:23:35.659Z,17.2
2016-05-01T05:24:35.646Z,17.13
2016-05-01T05:25:35.663Z,17.17
2016-05-01T05:26:35.635Z,17.09
2016-05-01T05:27:35.638Z,17.1
2016-05-01T05:28:35.687Z,17.13
2016-05-01T05:29:35.487Z,17.1
2016-05-01T05:30:35.833Z,17.05
2016-05-01T05:31:35.633Z,17.03
2016-05-01T05:32:35.417Z,16.99
2016-05-01T05:33:35.825Z,16.95
2016-05-01T05:34:35.610Z,17.03
2016-05-01T05:35:35.863Z,16.99
2016-05-01T05:36:35.599Z,16.97
2016-05-01T05:37:35.587Z,16.91
2016-05-01T05:38:35.792Z,16.97
2016-05-01T05:39:35.794Z,16.92
2016-05-01T05:40:35.391Z,16.94
2016-05-01T05:41:35.379Z,16.74
2016-05-01T05:42:35.615Z,16.91
2016-05-01T05:43:35.572Z,16.91
2016-05-01T05:44:35.558Z,16.87
2016-05-01T05:45:35.561Z,16.84
2016-05-01T05:46:35.564Z,16.84
2016-05-01T05:47:35.145Z,16.88
2016-05-01T05:48:35.335Z,16.87
2016-05-01T05:49:35.322Z,16.8
2016-05-01T05:50:35.669Z,16.8
2016-05-01T05:51:34.968Z,16.77
2016-05-01T05:52:35.768Z,16.8
2016-05-01T05:53:35.520Z,16.72
2016-05-01T05:54:35.507Z,16.74
2016-05-01T05:55:35.370Z,16.69
2016-05-01T05:56:35.512Z,16.73
2016-05-01T05:57:35.297Z,16.67
2016-05-01T05:58:35.705Z,16.7
2016-05-01T05:59:35.505Z,16.69
2016-05-01T06:00:35.289Z,16.72
2016-05-01T06:01:35.494Z,16.69
2016-05-01T06:02:35.060Z,16.7
2016-05-01T06:03:35.281Z,16.69
2016-05-01T06:04:35.066Z,16.66
2016-05-01T06:05:35.475Z,16.72
2016-05-01T06:06:35.508Z,16.63
2016-05-01T06:07:35.666Z,16.69
2016-05-01T06:08:35.436Z,16.63
2016-05-01T06:09:35.251Z,16.63
2016-05-01T06:10:35.457Z,16.65
2016-05-01T06:11:35.459Z,16.63
2016-05-01T06:12:35.450Z,16.59
2016-05-01T06:13:35.700Z,16.69
2016-05-01T06:14:35.078Z,16.65
2016-05-01T06:15:35.408Z,16.63
2016-05-01T06:16:35.208Z,16.55
2016-05-01T06:17:35.413Z,16.57
2016-05-01T06:18:35.400Z,16.52
2016-05-01T06:19:34.825Z,16.52
2016-05-01T06:20:35.266Z,16.55
2016-05-01T06:21:35.190Z,16.57
2016-05-01T06:22:35.411Z,16.49
2016-05-01T06:23:35.211Z,16.49
2016-05-01T06:24:35.371Z,16.52
2016-05-01T06:25:35.357Z,16.47
2016-05-01T06:26:35.172Z,16.54
2016-05-01T06:27:35.143Z,16.52
2016-05-01T06:28:35.349Z,16.51
2016-05-01T06:29:35.337Z,16.48
2016-05-01T06:30:35.386Z,16.48
2016-05-01T06:31:35.546Z,16.42
2016-05-01T06:32:35.173Z,16.44
2016-05-01T06:33:35.331Z,16.48
2016-05-01T06:34:35.523Z,16.36
2016-05-01T06:35:36.196Z,16.4
2016-05-01T06:36:35.106Z,16.37
2016-05-01T06:37:35.296Z,16.39
2016-05-01T06:38:35.142Z,16.37
2016-05-01T06:39:35.301Z,16.39
2016-05-01T06:40:35.289Z,16.37
2016-05-01T06:41:35.120Z,16.39
2016-05-01T06:42:35.075Z,16.36
2016-05-01T06:43:35.281Z,16.36
2016-05-01T06:44:35.080Z,16.42
2016-05-01T06:45:35.458Z,16.34
2016-05-01T06:46:35.055Z,16.33
2016-05-01T06:47:35.244Z,16.33
2016-05-01T06:48:35.247Z,16.36
2016-05-01T06:49:35.453Z,16.36
2016-05-01T06:50:36.172Z,16.32
2016-05-01T06:51:35.309Z,16.36
2016-05-01T06:52:35.199Z,16.37
2016-05-01T06:53:35.369Z,16.32
2016-05-01T06:54:35.414Z,16.32
2016-05-01T06:55:35.223Z,16.29
2016-05-01T06:56:35.445Z,16.32
2016-05-01T06:57:35.259Z,16.3
2016-05-01T06:58:35.465Z,16.32
2016-05-01T06:59:35.484Z,16.32
2016-05-01T07:00:35.525Z,16.32
2016-05-01T07:01:35.284Z,16.3
2016-05-01T07:02:35.479Z,16.32
2016-05-01T07:03:35.285Z,16.3
2016-05-01T07:04:35.480Z,16.29
2016-05-01T07:05:35.142Z,16.26
2016-05-01T07:06:35.271Z,16.22
2016-05-01T07:07:35.261Z,16.25
2016-05-01T07:08:35.109Z,16.21
2016-05-01T07:09:35.473Z,16.21
2016-05-01T07:10:35.618Z,16.25
2016-05-01T07:11:35.449Z,16.25
2016-05-01T07:12:35.032Z,16.21
2016-05-01T07:13:35.440Z,16.25
2016-05-01T07:14:35.444Z,16.29
2016-05-01T07:15:35.447Z,16.13
2016-05-01T07:16:35.232Z,16.25
2016-05-01T07:17:35.469Z,16.11
2016-05-01T07:18:35.223Z,16.22
2016-05-01T07:19:35.256Z,16.14
2016-05-01T07:20:35.619Z,16.21
2016-05-01T07:21:35.012Z,16.14
2016-05-01T07:22:35.202Z,16.14
2016-05-01T07:23:35.237Z,16.17
2016-05-01T07:24:34.989Z,16.21
2016-05-01T07:25:35.398Z,16.14
2016-05-01T07:26:35.587Z,16.11
2016-05-01T07:27:35.184Z,16.16
2016-05-01T07:28:35.000Z,16.16
2016-05-01T07:29:35.362Z,16.17
2016-05-01T07:30:34.801Z,16.17
2016-05-01T07:31:35.351Z,16.14
2016-05-01T07:32:35.182Z,16.13
2016-05-01T07:33:35.342Z,16.22
2016-05-01T07:34:35.328Z,16.14
2016-05-01T07:35:34.972Z,16.17
2016-05-01T07:36:35.333Z,16.16
2016-05-01T07:37:34.962Z,16.16
2016-05-01T07:38:35.355Z,16.17
2016-05-01T07:39:35.154Z,16.18
2016-05-01T07:40:35.500Z,16.21
2016-05-01T07:41:35.300Z,16.16
2016-05-01T07:42:35.081Z,16.22
2016-05-01T07:43:35.084Z,16.17
2016-05-01T07:44:35.321Z,16.17
2016-05-01T07:45:35.277Z,16.14
2016-05-01T07:46:35.280Z,16.21
2016-05-01T07:47:35.314Z,16.21
2016-05-01T07:48:35.051Z,16.13
2016-05-01T07:49:34.850Z,16.13
2016-05-01T07:50:34.899Z,16.21
2016-05-01T07:51:35.059Z,16.14
2016-05-01T07:52:35.249Z,16.17
2016-05-01T07:53:35.439Z,16.17
2016-05-01T07:54:35.426Z,16.13
2016-05-01T07:55:35.007Z,16.17
2016-05-01T07:56:35.260Z,16.16
2016-05-01T07:57:35.231Z,16.13
2016-05-01T07:58:35.203Z,16.14
2016-05-01T07:59:34.627Z,16.14
2016-05-01T08:00:35.037Z,16.16
2016-05-01T08:01:35.414Z,16.16
2016-05-01T08:02:35.198Z,16.17
2016-05-01T08:03:34.966Z,16.14
2016-05-01T08:04:35.172Z,16.14
2016-05-01T08:05:34.877Z,16.11
2016-05-01T08:06:34.803Z,16.13
2016-05-01T08:07:34.945Z,16.11
2016-05-01T08:08:34.994Z,16.13
2016-05-01T08:09:35.186Z,16.13
2016-05-01T08:10:35.157Z,16.13
2016-05-01T08:11:35.128Z,16.14
2016-05-01T08:12:34.991Z,16.17
2016-05-01T08:13:35.133Z,16.25
2016-05-01T08:14:35.121Z,16.17
2016-05-01T08:15:35.107Z,16.17
2016-05-01T08:16:35.110Z,16.21
2016-05-01T08:17:34.941Z,16.17
2016-05-01T08:18:35.319Z,16.17
2016-05-01T08:19:35.087Z,16.22
2016-05-01T08:20:35.090Z,16.22
2016-05-01T08:21:34.530Z,16.17
2016-05-01T08:22:34.877Z,16.26
2016-05-01T08:23:35.067Z,16.26
2016-05-01T08:24:34.648Z,16.25
2016-05-01T08:25:34.853Z,16.33
2016-05-01T08:26:35.043Z,16.27
2016-05-01T08:27:34.843Z,16.26
2016-05-01T08:28:34.689Z,16.27
2016-05-01T08:29:35.287Z,16.22
2016-05-01T08:30:34.821Z,16.26
2016-05-01T08:31:35.010Z,16.32
2016-05-01T08:32:35.012Z,16.34
2016-05-01T08:33:35.001Z,16.26
2016-05-01T08:34:35.018Z,16.29
2016-05-01T08:35:34.599Z,16.34
2016-05-01T08:36:35.196Z,16.33
2016-05-01T08:37:34.979Z,16.3
2016-05-01T08:38:34.795Z,16.37
2016-05-01T08:39:34.454Z,16.36
2016-05-01T08:40:34.816Z,16.36
2016-05-01T08:41:34.818Z,16.36
2016-05-01T08:42:34.759Z,16.33
2016-05-01T08:43:34.761Z,16.4
2016-05-01T08:44:35.154Z,16.42
2016-05-01T08:45:34.938Z,16.4
2016-05-01T08:46:34.941Z,16.4
2016-05-01T08:47:34.944Z,16.37
2016-05-01T08:48:34.728Z,16.4
2016-05-01T08:49:34.918Z,16.44
2016-05-01T08:50:35.858Z,16.42
2016-05-01T08:51:34.938Z,16.4
2016-05-01T08:52:34.910Z,16.37
2016-05-01T08:53:34.897Z,16.39
2016-05-01T08:54:34.681Z,16.4
2016-05-01T08:55:35.091Z,16.37
2016-05-01T08:56:34.530Z,16.4
2016-05-01T08:57:34.689Z,16.44
2016-05-01T08:58:35.083Z,16.42
2016-05-01T08:59:34.882Z,16.37
2016-05-01T09:00:34.713Z,16.39
2016-05-01T09:01:34.857Z,16.4
2016-05-01T09:02:34.640Z,16.39
2016-05-01T09:03:34.845Z,16.42
2016-05-01T09:04:34.834Z,16.51
2016-05-01T09:05:35.148Z,16.44
2016-05-01T09:06:34.479Z,16.49
2016-05-01T09:07:34.123Z,16.49
2016-05-01T09:08:34.812Z,16.49
2016-05-01T09:09:34.815Z,16.45
2016-05-01T09:10:34.646Z,16.48
2016-05-01T09:11:34.992Z,16.52
2016-05-01T09:12:34.995Z,16.55
2016-05-01T09:13:34.780Z,16.55
2016-05-01T09:14:34.578Z,16.48
2016-05-01T09:15:34.253Z,16.57
2016-05-01T09:16:34.569Z,16.52
2016-05-01T09:17:34.572Z,16.52
2016-05-01T09:18:34.761Z,16.58
2016-05-01T09:19:34.592Z,16.54
2016-05-01T09:20:34.627Z,16.58
2016-05-01T09:21:34.739Z,16.59
2016-05-01T09:22:34.554Z,16.57
2016-05-01T09:23:34.326Z,16.52
2016-05-01T09:24:34.735Z,16.57
2016-05-01T09:25:34.504Z,16.58
2016-05-01T09:26:34.756Z,16.63
2016-05-01T09:27:34.354Z,16.52
2016-05-01T09:28:34.699Z,16.58
2016-05-01T09:29:34.531Z,16.55
2016-05-01T09:30:34.690Z,16.55
2016-05-01T09:31:34.707Z,16.58
2016-05-01T09:32:34.678Z,16.55
2016-05-01T09:33:34.479Z,16.59
2016-05-01T09:34:34.481Z,16.66
2016-05-01T09:35:34.484Z,16.62
2016-05-01T09:36:34.471Z,16.72
2016-05-01T09:37:34.865Z,16.69
2016-05-01T09:38:34.492Z,16.59
2016-05-01T09:39:34.479Z,16.62
2016-05-01T09:40:34.638Z,16.73
2016-05-01T09:41:34.422Z,16.69
2016-05-01T09:42:34.830Z,16.67
2016-05-01T09:43:34.412Z,16.69
2016-05-01T09:44:34.603Z,16.76
2016-05-01T09:45:34.402Z,16.8
2016-05-01T09:46:34.420Z,16.82
2016-05-01T09:47:34.391Z,16.82
2016-05-01T09:48:34.175Z,16.85
2016-05-01T09:49:34.381Z,16.84
2016-05-01T09:50:34.602Z,16.82
2016-05-01T09:51:34.590Z,16.88
2016-05-01T09:52:34.561Z,16.97
2016-05-01T09:53:34.361Z,16.92
2016-05-01T09:54:34.551Z,16.85
2016-05-01T09:55:34.740Z,16.94
2016-05-01T09:56:34.541Z,16.85
2016-05-01T09:57:34.731Z,16.99
2016-05-01T09:58:34.373Z,16.92
2016-05-01T09:59:34.362Z,16.92
2016-05-01T10:00:34.318Z,16.94
2016-05-01T10:01:34.320Z,16.97
2016-05-01T10:02:34.151Z,17
2016-05-01T10:03:34.512Z,17
2016-05-01T10:04:34.156Z,17
2016-05-01T10:05:34.299Z,17.06
2016-05-01T10:06:34.692Z,17.12
2016-05-01T10:07:34.540Z,17.09
2016-05-01T10:08:34.479Z,17.07
2016-05-01T10:09:34.075Z,17.2
2016-05-01T10:10:34.312Z,17.15
2016-05-01T10:11:34.675Z,17.2
2016-05-01T10:12:34.475Z,17.09
2016-05-01T10:13:34.102Z,17.18
2016-05-01T10:14:34.244Z,17.12
2016-05-01T10:15:34.233Z,17.28
2016-05-01T10:16:34.626Z,17.27
2016-05-01T10:17:34.066Z,17.25
2016-05-01T10:18:34.413Z,17.15
2016-05-01T10:19:34.227Z,17.28
2016-05-01T10:20:34.886Z,17.31
2016-05-01T10:21:34.624Z,17.3
2016-05-01T10:22:34.252Z,17.35
2016-05-01T10:23:34.411Z,17.36
2016-05-01T10:24:34.600Z,17.39
2016-05-01T10:25:34.197Z,17.31
2016-05-01T10:26:34.590Z,17.32
2016-05-01T10:27:34.374Z,17.45
2016-05-01T10:28:34.376Z,17.43
2016-05-01T10:29:34.160Z,17.49
2016-05-01T10:30:34.382Z,17.46
2016-05-01T10:31:34.573Z,17.39
2016-05-01T10:32:33.951Z,17.5
2016-05-01T10:33:34.203Z,17.47
2016-05-01T10:34:34.159Z,17.43
2016-05-01T10:35:34.723Z,17.54
2016-05-01T10:36:34.539Z,17.49
2016-05-01T10:37:34.541Z,17.5
2016-05-01T10:38:34.732Z,17.52
2016-05-01T10:39:34.313Z,17.58
2016-05-01T10:40:34.159Z,17.5
2016-05-01T10:41:34.317Z,17.58
2016-05-01T10:42:33.945Z,17.6
2016-05-01T10:43:33.947Z,17.57
2016-05-01T10:44:34.092Z,17.55
2016-05-01T10:45:34.314Z,17.69
2016-05-01T10:46:34.300Z,17.71
2016-05-01T10:47:34.131Z,17.73
2016-05-01T10:48:34.289Z,17.76
2016-05-01T10:49:34.480Z,17.73
2016-05-01T10:50:34.279Z,17.69
2016-05-01T10:51:34.266Z,17.66
2016-05-01T10:52:34.270Z,17.71
2016-05-01T10:53:34.257Z,17.73
2016-05-01T10:54:34.291Z,17.81
2016-05-01T10:55:34.449Z,17.71
2016-05-01T10:56:34.249Z,17.84
2016-05-01T10:57:33.876Z,17.86
2016-05-01T10:58:34.020Z,17.86
2016-05-01T10:59:34.038Z,17.84
2016-05-01T11:00:34.212Z,17.81
2016-05-01T11:01:34.418Z,17.84
2016-05-01T11:02:34.265Z,17.86
2016-05-01T11:03:34.205Z,17.92
2016-05-01T11:04:33.801Z,17.95
2016-05-01T11:05:34.132Z,17.99
2016-05-01T11:06:33.995Z,17.94
2016-05-01T11:07:33.981Z,17.84
2016-05-01T11:08:33.828Z,17.87
2016-05-01T11:09:34.190Z,18.02
2016-05-01T11:10:34.177Z,17.94
2016-05-01T11:11:34.180Z,18.01
2016-05-01T11:12:33.964Z,17.99
2016-05-01T11:13:34.170Z,18.02
2016-05-01T11:14:34.156Z,18.03
2016-05-01T11:15:34.378Z,18.03
2016-05-01T11:16:33.740Z,18.06
2016-05-01T11:17:34.149Z,18.02
2016-05-01T11:18:33.792Z,18.13
2016-05-01T11:19:33.983Z,18.03
2016-05-01T11:20:34.345Z,18.11
2016-05-01T11:21:33.925Z,18.08
2016-05-01T11:22:34.319Z,18.06
2016-05-01T11:23:33.963Z,18.1
2016-05-01T11:24:33.918Z,18.06
2016-05-01T11:25:33.921Z,18.17
2016-05-01T11:26:33.908Z,18.11
2016-05-01T11:27:33.894Z,18.13
2016-05-01T11:28:34.085Z,18.13
2016-05-01T11:29:33.729Z,18.19
2016-05-01T11:30:33.732Z,18.19
2016-05-01T11:31:33.687Z,18.14
2016-05-01T11:32:33.877Z,18.24
2016-05-01T11:33:33.879Z,18.24
2016-05-01T11:34:34.070Z,18.17
2016-05-01T11:35:33.791Z,18.24
2016-05-01T11:36:34.263Z,18.19
2016-05-01T11:37:33.656Z,18.35
2016-05-01T11:38:33.846Z,18.26
2016-05-01T11:39:34.037Z,18.23
2016-05-01T11:40:34.039Z,18.35
2016-05-01T11:41:34.042Z,18.32
2016-05-01T11:42:34.232Z,18.32
2016-05-01T11:43:34.234Z,18.32
2016-05-01T11:44:33.815Z,18.39
2016-05-01T11:45:33.864Z,18.47
2016-05-01T11:46:33.805Z,18.45
2016-05-01T11:47:33.808Z,18.41
2016-05-01T11:48:33.998Z,18.45
2016-05-01T11:49:33.641Z,18.47
2016-05-01T11:50:33.645Z,18.38
2016-05-01T11:51:34.006Z,18.53
2016-05-01T11:52:34.180Z,18.5
2016-05-01T11:53:33.778Z,18.42
2016-05-01T11:54:33.577Z,18.5
2016-05-01T11:55:33.611Z,18.47
2016-05-01T11:56:33.769Z,18.51
2016-05-01T11:57:33.975Z,18.54
2016-05-01T11:58:33.807Z,18.53
2016-05-01T11:59:33.762Z,18.6
2016-05-01T12:00:33.999Z,18.57
2016-05-01T12:01:33.815Z,18.63
2016-05-01T12:02:33.942Z,18.61
2016-05-01T12:03:33.960Z,18.6
2016-05-01T12:04:33.932Z,18.65
2016-05-01T12:05:35.200Z,18.65
2016-05-01T12:06:33.578Z,18.71
2016-05-01T12:07:33.361Z,18.72
2016-05-01T12:08:34.130Z,18.69
2016-05-01T12:09:34.118Z,18.68
2016-05-01T12:10:33.901Z,18.76
2016-05-01T12:11:33.545Z,18.78
2016-05-01T12:12:34.109Z,18.74
2016-05-01T12:13:33.706Z,18.69
2016-05-01T12:14:33.521Z,18.74
2016-05-01T12:15:33.727Z,18.76
2016-05-01T12:16:34.089Z,18.81
2016-05-01T12:17:33.732Z,18.82
2016-05-01T12:18:33.469Z,18.74
2016-05-01T12:19:33.925Z,18.81
2016-05-01T12:20:33.803Z,18.87
2016-05-01T12:21:33.665Z,18.81
2016-05-01T12:22:33.700Z,18.81
2016-05-01T12:23:33.655Z,18.75
2016-05-01T12:24:33.844Z,18.84
2016-05-01T12:25:33.863Z,18.9
2016-05-01T12:26:33.663Z,18.97
2016-05-01T12:27:33.478Z,18.91
2016-05-01T12:28:33.637Z,18.97
2016-05-01T12:29:33.624Z,18.93
2016-05-01T12:30:33.688Z,18.99
2016-05-01T12:31:33.614Z,19.06
2016-05-01T12:32:33.460Z,18.94
2016-05-01T12:33:33.447Z,19.06
2016-05-01T12:34:33.419Z,19.16
2016-05-01T12:35:33.656Z,19.06
2016-05-01T12:36:33.424Z,19.16
2016-05-01T12:37:33.848Z,19.1
2016-05-01T12:38:33.804Z,19.15
2016-05-01T12:39:33.448Z,19.12
2016-05-01T12:40:33.576Z,19.15
2016-05-01T12:41:33.781Z,19.15
2016-05-01T12:42:33.784Z,19.1
2016-05-01T12:43:33.428Z,19.1
2016-05-01T12:44:33.570Z,19.09
2016-05-01T12:45:33.573Z,19.16
2016-05-01T12:46:33.763Z,19.24
2016-05-01T12:47:33.563Z,19.19
2016-05-01T12:48:33.567Z,19.27
2016-05-01T12:49:33.756Z,19.24
2016-05-01T12:50:34.587Z,19.28
2016-05-01T12:51:33.745Z,19.24
2016-05-01T12:52:33.405Z,19.27
2016-05-01T12:53:33.391Z,19.28
2016-05-01T12:54:33.582Z,19.31
2016-05-01T12:55:33.725Z,19.32